sensor_id;sensor_type;location;lat;lon;timestamp;P1;durP1;ratioP1;P2;durP2;ratioP2
15112;SDS011;7657;50.140;7.076;2023-08-06T00:00:51;4.00;;;2.10;;
15112;SDS011;7657;50.140;7.076;2023-08-06T00:03:18;3.30;;;2.08;;
15112;SDS011;7657;50.140;7.076;2023-08-06T00:05:45;2.05;;;1.80;;
15112;SDS011;7657;50.140;7.076;2023-08-06T00:08:12;2.50;;;1.83;;
15112;SDS011;7657;50.140;7.076;2023-08-06T00:10:39;2.72;;;2.22;;
15112;SDS011;7657;50.140;7.076;2023-08-06T00:13:06;2.75;;;2.10;;
15112;SDS011;7657;50.140;7.076;2023-08-06T00:15:34;3.17;;;2.00;;
15112;SDS011;7657;50.140;7.076;2023-08-06T00:18:01;2.83;;;1.83;;
15112;SDS011;7657;50.140;7.076;2023-08-06T00:20:28;2.42;;;2.22;;
15112;SDS011;7657;50.140;7.076;2023-08-06T00:22:55;1.98;;;1.75;;
15112;SDS011;7657;50.140;7.076;2023-08-06T00:25:22;2.58;;;1.90;;
15112;SDS011;7657;50.140;7.076;2023-08-06T00:27:49;2.83;;;2.20;;
15112;SDS011;7657;50.140;7.076;2023-08-06T00:30:16;3.50;;;2.30;;
15112;SDS011;7657;50.140;7.076;2023-08-06T00:32:44;2.20;;;2.00;;
15112;SDS011;7657;50.140;7.076;2023-08-06T00:35:11;3.53;;;1.95;;
15112;SDS011;7657;50.140;7.076;2023-08-06T00:37:38;3.08;;;1.92;;
15112;SDS011;7657;50.140;7.076;2023-08-06T00:40:06;4.65;;;2.10;;
15112;SDS011;7657;50.140;7.076;2023-08-06T00:42:33;4.18;;;2.05;;
15112;SDS011;7657;50.140;7.076;2023-08-06T00:45:00;2.85;;;1.85;;
15112;SDS011;7657;50.140;7.076;2023-08-06T00:47:28;2.15;;;1.52;;
15112;SDS011;7657;50.140;7.076;2023-08-06T00:49:56;2.58;;;1.90;;
15112;SDS011;7657;50.140;7.076;2023-08-06T00:52:23;2.75;;;1.70;;
15112;SDS011;7657;50.140;7.076;2023-08-06T00:54:50;2.22;;;1.70;;
15112;SDS011;7657;50.140;7.076;2023-08-06T00:57:17;2.10;;;1.80;;
15112;SDS011;7657;50.140;7.076;2023-08-06T00:59:46;2.17;;;1.60;;
15112;SDS011;7657;50.140;7.076;2023-08-06T01:02:13;2.55;;;1.73;;
15112;SDS011;7657;50.140;7.076;2023-08-06T01:04:40;3.38;;;2.13;;
15112;SDS011;7657;50.140;7.076;2023-08-06T01:07:10;3.03;;;1.92;;
15112;SDS011;7657;50.140;7.076;2023-08-06T01:09:47;2.22;;;1.67;;
15112;SDS011;7657;50.140;7.076;2023-08-06T01:12:25;2.38;;;1.60;;
15112;SDS011;7657;50.140;7.076;2023-08-06T01:15:02;2.88;;;1.67;;
15112;SDS011;7657;50.140;7.076;2023-08-06T01:17:34;2.55;;;1.88;;
15112;SDS011;7657;50.140;7.076;2023-08-06T01:20:01;7.80;;;2.70;;
15112;SDS011;7657;50.140;7.076;2023-08-06T01:22:30;3.63;;;1.90;;
15112;SDS011;7657;50.140;7.076;2023-08-06T01:24:57;2.80;;;1.52;;
15112;SDS011;7657;50.140;7.076;2023-08-06T01:27:25;1.98;;;1.40;;
15112;SDS011;7657;50.140;7.076;2023-08-06T01:30:01;2.95;;;1.60;;
15112;SDS011;7657;50.140;7.076;2023-08-06T01:32:30;3.08;;;1.83;;
15112;SDS011;7657;50.140;7.076;2023-08-06T01:35:00;1.98;;;1.50;;
15112;SDS011;7657;50.140;7.076;2023-08-06T01:37:30;1.55;;;1.17;;
15112;SDS011;7657;50.140;7.076;2023-08-06T01:39:57;2.65;;;1.65;;
15112;SDS011;7657;50.140;7.076;2023-08-06T01:42:24;2.95;;;1.52;;
15112;SDS011;7657;50.140;7.076;2023-08-06T01:44:51;3.10;;;1.60;;
15112;SDS011;7657;50.140;7.076;2023-08-06T01:47:18;1.83;;;1.50;;
15112;SDS011;7657;50.140;7.076;2023-08-06T01:49:44;3.05;;;1.80;;
15112;SDS011;7657;50.140;7.076;2023-08-06T01:52:11;3.15;;;1.67;;
15112;SDS011;7657;50.140;7.076;2023-08-06T01:54:39;4.13;;;1.70;;
15112;SDS011;7657;50.140;7.076;2023-08-06T01:57:06;2.28;;;1.20;;
15112;SDS011;7657;50.140;7.076;2023-08-06T01:59:33;3.83;;;1.85;;
15112;SDS011;7657;50.140;7.076;2023-08-06T02:02:00;2.00;;;1.40;;
15112;SDS011;7657;50.140;7.076;2023-08-06T02:04:28;2.75;;;1.48;;
15112;SDS011;7657;50.140;7.076;2023-08-06T02:06:55;1.65;;;1.38;;
15112;SDS011;7657;50.140;7.076;2023-08-06T02:09:22;2.80;;;1.60;;
15112;SDS011;7657;50.140;7.076;2023-08-06T02:11:50;1.88;;;1.45;;
15112;SDS011;7657;50.140;7.076;2023-08-06T02:14:17;1.60;;;1.50;;
15112;SDS011;7657;50.140;7.076;2023-08-06T02:16:43;2.20;;;1.20;;
15112;SDS011;7657;50.140;7.076;2023-08-06T02:19:10;1.40;;;1.30;;
15112;SDS011;7657;50.140;7.076;2023-08-06T02:21:37;3.20;;;1.50;;
15112;SDS011;7657;50.140;7.076;2023-08-06T02:24:04;2.00;;;1.20;;
15112;SDS011;7657;50.140;7.076;2023-08-06T02:26:31;3.80;;;1.20;;
15112;SDS011;7657;50.140;7.076;2023-08-06T02:28:59;1.63;;;1.50;;
15112;SDS011;7657;50.140;7.076;2023-08-06T02:31:26;2.97;;;1.30;;
15112;SDS011;7657;50.140;7.076;2023-08-06T02:33:53;1.40;;;1.30;;
15112;SDS011;7657;50.140;7.076;2023-08-06T02:36:20;2.78;;;1.13;;
15112;SDS011;7657;50.140;7.076;2023-08-06T02:38:47;1.75;;;1.00;;
15112;SDS011;7657;50.140;7.076;2023-08-06T02:41:14;1.67;;;0.90;;
15112;SDS011;7657;50.140;7.076;2023-08-06T02:43:40;1.58;;;1.10;;
15112;SDS011;7657;50.140;7.076;2023-08-06T02:46:09;1.92;;;1.20;;
15112;SDS011;7657;50.140;7.076;2023-08-06T02:48:35;0.90;;;0.90;;
15112;SDS011;7657;50.140;7.076;2023-08-06T02:51:02;0.60;;;0.60;;
15112;SDS011;7657;50.140;7.076;2023-08-06T02:53:29;1.45;;;0.80;;
15112;SDS011;7657;50.140;7.076;2023-08-06T02:55:56;1.33;;;0.70;;
15112;SDS011;7657;50.140;7.076;2023-08-06T02:58:22;0.70;;;0.70;;
15112;SDS011;7657;50.140;7.076;2023-08-06T03:00:59;1.05;;;0.57;;
15112;SDS011;7657;50.140;7.076;2023-08-06T03:03:29;1.25;;;0.57;;
15112;SDS011;7657;50.140;7.076;2023-08-06T03:05:56;0.95;;;0.70;;
15112;SDS011;7657;50.140;7.076;2023-08-06T03:08:23;1.85;;;0.70;;
15112;SDS011;7657;50.140;7.076;2023-08-06T03:10:50;0.60;;;0.60;;
15112;SDS011;7657;50.140;7.076;2023-08-06T03:13:17;1.35;;;0.85;;
15112;SDS011;7657;50.140;7.076;2023-08-06T03:15:51;0.93;;;0.60;;
15112;SDS011;7657;50.140;7.076;2023-08-06T03:18:19;0.93;;;0.60;;
15112;SDS011;7657;50.140;7.076;2023-08-06T03:20:47;1.23;;;0.60;;
15112;SDS011;7657;50.140;7.076;2023-08-06T03:23:14;0.82;;;0.40;;
15112;SDS011;7657;50.140;7.076;2023-08-06T03:25:41;0.80;;;0.65;;
15112;SDS011;7657;50.140;7.076;2023-08-06T03:28:08;0.40;;;0.40;;
15112;SDS011;7657;50.140;7.076;2023-08-06T03:30:35;1.00;;;0.30;;
15112;SDS011;7657;50.140;7.076;2023-08-06T03:33:02;0.65;;;0.30;;
15112;SDS011;7657;50.140;7.076;2023-08-06T03:35:29;0.85;;;0.30;;
15112;SDS011;7657;50.140;7.076;2023-08-06T03:37:57;0.40;;;0.40;;
15112;SDS011;7657;50.140;7.076;2023-08-06T03:40:24;0.32;;;0.20;;
15112;SDS011;7657;50.140;7.076;2023-08-06T03:42:51;0.20;;;0.20;;
15112;SDS011;7657;50.140;7.076;2023-08-06T03:45:17;0.65;;;0.30;;
15112;SDS011;7657;50.140;7.076;2023-08-06T03:47:44;3.05;;;0.38;;
15112;SDS011;7657;50.140;7.076;2023-08-06T03:50:11;0.43;;;0.20;;
15112;SDS011;7657;50.140;7.076;2023-08-06T03:52:38;1.13;;;0.22;;
15112;SDS011;7657;50.140;7.076;2023-08-06T03:55:06;0.50;;;0.25;;
15112;SDS011;7657;50.140;7.076;2023-08-06T03:57:33;0.28;;;0.20;;
15112;SDS011;7657;50.140;7.076;2023-08-06T04:00:00;0.28;;;0.20;;
15112;SDS011;7657;50.140;7.076;2023-08-06T04:02:28;1.45;;;0.40;;
15112;SDS011;7657;50.140;7.076;2023-08-06T04:04:55;0.30;;;0.20;;
15112;SDS011;7657;50.140;7.076;2023-08-06T04:07:24;0.40;;;0.10;;
15112;SDS011;7657;50.140;7.076;2023-08-06T04:09:52;0.30;;;0.30;;
15112;SDS011;7657;50.140;7.076;2023-08-06T04:12:22;0.20;;;0.20;;
15112;SDS011;7657;50.140;7.076;2023-08-06T04:14:49;0.28;;;0.22;;
15112;SDS011;7657;50.140;7.076;2023-08-06T04:17:17;0.28;;;0.20;;
15112;SDS011;7657;50.140;7.076;2023-08-06T04:19:45;0.43;;;0.20;;
15112;SDS011;7657;50.140;7.076;2023-08-06T04:22:13;2.08;;;0.30;;
15112;SDS011;7657;50.140;7.076;2023-08-06T04:24:41;0.25;;;0.20;;
15112;SDS011;7657;50.140;7.076;2023-08-06T04:27:08;0.30;;;0.30;;
15112;SDS011;7657;50.140;7.076;2023-08-06T04:29:36;1.35;;;0.10;;
15112;SDS011;7657;50.140;7.076;2023-08-06T04:32:05;0.30;;;0.20;;
15112;SDS011;7657;50.140;7.076;2023-08-06T04:34:34;0.55;;;0.20;;
15112;SDS011;7657;50.140;7.076;2023-08-06T04:37:01;0.80;;;0.30;;
15112;SDS011;7657;50.140;7.076;2023-08-06T04:39:28;0.20;;;0.10;;
15112;SDS011;7657;50.140;7.076;2023-08-06T04:41:56;0.15;;;0.15;;
15112;SDS011;7657;50.140;7.076;2023-08-06T04:44:23;0.40;;;0.40;;
15112;SDS011;7657;50.140;7.076;2023-08-06T04:46:51;0.60;;;0.20;;
15112;SDS011;7657;50.140;7.076;2023-08-06T04:49:19;0.20;;;0.20;;
15112;SDS011;7657;50.140;7.076;2023-08-06T04:51:46;0.10;;;0.10;;
15112;SDS011;7657;50.140;7.076;2023-08-06T04:54:14;0.28;;;0.28;;
15112;SDS011;7657;50.140;7.076;2023-08-06T04:56:41;1.25;;;0.40;;
15112;SDS011;7657;50.140;7.076;2023-08-06T04:59:08;0.20;;;0.20;;
15112;SDS011;7657;50.140;7.076;2023-08-06T05:01:35;0.65;;;0.43;;
15112;SDS011;7657;50.140;7.076;2023-08-06T05:04:03;2.10;;;0.50;;
15112;SDS011;7657;50.140;7.076;2023-08-06T05:06:30;1.95;;;0.50;;
15112;SDS011;7657;50.140;7.076;2023-08-06T05:08:57;0.30;;;0.30;;
15112;SDS011;7657;50.140;7.076;2023-08-06T05:11:24;0.80;;;0.60;;
15112;SDS011;7657;50.140;7.076;2023-08-06T05:13:51;0.52;;;0.52;;
15112;SDS011;7657;50.140;7.076;2023-08-06T05:16:17;0.73;;;0.50;;
15112;SDS011;7657;50.140;7.076;2023-08-06T05:18:44;0.90;;;0.57;;
15112;SDS011;7657;50.140;7.076;2023-08-06T05:21:13;0.65;;;0.65;;
15112;SDS011;7657;50.140;7.076;2023-08-06T05:23:41;1.60;;;0.50;;
15112;SDS011;7657;50.140;7.076;2023-08-06T05:26:08;1.20;;;0.40;;
15112;SDS011;7657;50.140;7.076;2023-08-06T05:28:35;0.60;;;0.40;;
15112;SDS011;7657;50.140;7.076;2023-08-06T05:31:03;1.65;;;0.55;;
15112;SDS011;7657;50.140;7.076;2023-08-06T05:33:30;1.65;;;0.52;;
15112;SDS011;7657;50.140;7.076;2023-08-06T05:35:57;0.60;;;0.60;;
15112;SDS011;7657;50.140;7.076;2023-08-06T05:38:25;0.43;;;0.43;;
15112;SDS011;7657;50.140;7.076;2023-08-06T05:40:52;0.40;;;0.40;;
15112;SDS011;7657;50.140;7.076;2023-08-06T05:43:20;0.52;;;0.50;;
15112;SDS011;7657;50.140;7.076;2023-08-06T05:45:49;1.05;;;0.60;;
15112;SDS011;7657;50.140;7.076;2023-08-06T05:48:16;0.57;;;0.30;;
15112;SDS011;7657;50.140;7.076;2023-08-06T05:50:43;1.08;;;0.60;;
15112;SDS011;7657;50.140;7.076;2023-08-06T05:53:10;0.40;;;0.40;;
15112;SDS011;7657;50.140;7.076;2023-08-06T05:55:38;1.13;;;0.50;;
15112;SDS011;7657;50.140;7.076;2023-08-06T05:58:05;0.40;;;0.40;;
15112;SDS011;7657;50.140;7.076;2023-08-06T06:00:32;1.95;;;0.43;;
15112;SDS011;7657;50.140;7.076;2023-08-06T06:03:00;0.93;;;0.52;;
15112;SDS011;7657;50.140;7.076;2023-08-06T06:05:27;2.25;;;0.80;;
15112;SDS011;7657;50.140;7.076;2023-08-06T06:07:54;0.50;;;0.50;;
15112;SDS011;7657;50.140;7.076;2023-08-06T06:10:21;0.40;;;0.40;;
15112;SDS011;7657;50.140;7.076;2023-08-06T06:12:49;0.50;;;0.50;;
15112;SDS011;7657;50.140;7.076;2023-08-06T06:15:16;0.88;;;0.45;;
15112;SDS011;7657;50.140;7.076;2023-08-06T06:17:43;0.50;;;0.40;;
15112;SDS011;7657;50.140;7.076;2023-08-06T06:20:10;2.47;;;0.60;;
15112;SDS011;7657;50.140;7.076;2023-08-06T06:22:37;0.47;;;0.47;;
15112;SDS011;7657;50.140;7.076;2023-08-06T06:25:04;1.08;;;0.70;;
15112;SDS011;7657;50.140;7.076;2023-08-06T06:27:32;1.88;;;0.70;;
15112;SDS011;7657;50.140;7.076;2023-08-06T06:30:00;1.00;;;0.70;;
15112;SDS011;7657;50.140;7.076;2023-08-06T06:32:27;0.55;;;0.47;;
15112;SDS011;7657;50.140;7.076;2023-08-06T06:34:54;0.50;;;0.50;;
15112;SDS011;7657;50.140;7.076;2023-08-06T06:37:21;0.70;;;0.50;;
15112;SDS011;7657;50.140;7.076;2023-08-06T06:39:48;0.60;;;0.40;;
15112;SDS011;7657;50.140;7.076;2023-08-06T06:42:15;1.05;;;0.70;;
15112;SDS011;7657;50.140;7.076;2023-08-06T06:44:42;1.45;;;0.75;;
15112;SDS011;7657;50.140;7.076;2023-08-06T06:47:10;1.00;;;0.50;;
15112;SDS011;7657;50.140;7.076;2023-08-06T06:49:37;2.15;;;0.60;;
15112;SDS011;7657;50.140;7.076;2023-08-06T06:52:04;0.50;;;0.50;;
15112;SDS011;7657;50.140;7.076;2023-08-06T06:54:32;0.70;;;0.70;;
15112;SDS011;7657;50.140;7.076;2023-08-06T06:56:59;0.68;;;0.65;;
15112;SDS011;7657;50.140;7.076;2023-08-06T06:59:25;0.65;;;0.60;;
15112;SDS011;7657;50.140;7.076;2023-08-06T07:01:52;1.40;;;0.50;;
15112;SDS011;7657;50.140;7.076;2023-08-06T07:04:21;2.40;;;0.50;;
15112;SDS011;7657;50.140;7.076;2023-08-06T07:06:47;0.93;;;0.73;;
15112;SDS011;7657;50.140;7.076;2023-08-06T07:09:14;1.27;;;0.50;;
15112;SDS011;7657;50.140;7.076;2023-08-06T07:11:41;0.93;;;0.50;;
15112;SDS011;7657;50.140;7.076;2023-08-06T07:14:09;1.00;;;0.55;;
15112;SDS011;7657;50.140;7.076;2023-08-06T07:16:36;1.70;;;0.50;;
15112;SDS011;7657;50.140;7.076;2023-08-06T07:19:03;0.47;;;0.40;;
15112;SDS011;7657;50.140;7.076;2023-08-06T07:21:32;0.60;;;0.60;;
15112;SDS011;7657;50.140;7.076;2023-08-06T07:23:59;1.00;;;0.40;;
15112;SDS011;7657;50.140;7.076;2023-08-06T07:26:25;0.50;;;0.40;;
15112;SDS011;7657;50.140;7.076;2023-08-06T07:28:52;0.40;;;0.40;;
15112;SDS011;7657;50.140;7.076;2023-08-06T07:31:19;0.65;;;0.50;;
15112;SDS011;7657;50.140;7.076;2023-08-06T07:33:46;0.47;;;0.40;;
15112;SDS011;7657;50.140;7.076;2023-08-06T07:36:13;0.55;;;0.40;;
15112;SDS011;7657;50.140;7.076;2023-08-06T07:38:42;0.30;;;0.30;;
15112;SDS011;7657;50.140;7.076;2023-08-06T07:41:09;0.98;;;0.50;;
15112;SDS011;7657;50.140;7.076;2023-08-06T07:43:36;0.30;;;0.30;;
15112;SDS011;7657;50.140;7.076;2023-08-06T07:46:03;0.93;;;0.30;;
15112;SDS011;7657;50.140;7.076;2023-08-06T07:48:30;1.08;;;0.20;;
15112;SDS011;7657;50.140;7.076;2023-08-06T07:50:57;0.45;;;0.30;;
15112;SDS011;7657;50.140;7.076;2023-08-06T07:53:24;0.47;;;0.38;;
15112;SDS011;7657;50.140;7.076;2023-08-06T07:55:55;0.40;;;0.30;;
15112;SDS011;7657;50.140;7.076;2023-08-06T07:58:23;0.65;;;0.40;;
15112;SDS011;7657;50.140;7.076;2023-08-06T08:00:51;0.65;;;0.20;;
15112;SDS011;7657;50.140;7.076;2023-08-06T08:03:18;2.55;;;0.50;;
15112;SDS011;7657;50.140;7.076;2023-08-06T08:05:45;0.20;;;0.20;;
15112;SDS011;7657;50.140;7.076;2023-08-06T08:08:12;1.13;;;0.25;;
15112;SDS011;7657;50.140;7.076;2023-08-06T08:10:39;0.20;;;0.20;;
15112;SDS011;7657;50.140;7.076;2023-08-06T08:13:07;0.50;;;0.30;;
15112;SDS011;7657;50.140;7.076;2023-08-06T08:15:35;0.35;;;0.30;;
15112;SDS011;7657;50.140;7.076;2023-08-06T08:18:02;1.27;;;0.30;;
15112;SDS011;7657;50.140;7.076;2023-08-06T08:20:28;1.38;;;0.30;;
15112;SDS011;7657;50.140;7.076;2023-08-06T08:22:57;0.47;;;0.22;;
15112;SDS011;7657;50.140;7.076;2023-08-06T08:25:25;0.20;;;0.20;;
15112;SDS011;7657;50.140;7.076;2023-08-06T08:27:52;0.30;;;0.30;;
15112;SDS011;7657;50.140;7.076;2023-08-06T08:30:20;0.28;;;0.20;;
15112;SDS011;7657;50.140;7.076;2023-08-06T08:32:49;0.20;;;0.20;;
15112;SDS011;7657;50.140;7.076;2023-08-06T08:35:16;0.22;;;0.22;;
15112;SDS011;7657;50.140;7.076;2023-08-06T08:37:43;0.20;;;0.20;;
15112;SDS011;7657;50.140;7.076;2023-08-06T08:40:10;1.00;;;0.10;;
15112;SDS011;7657;50.140;7.076;2023-08-06T08:42:37;1.10;;;1.10;;
15112;SDS011;7657;50.140;7.076;2023-08-06T08:45:05;0.35;;;0.30;;
15112;SDS011;7657;50.140;7.076;2023-08-06T08:47:38;1.00;;;0.10;;
15112;SDS011;7657;50.140;7.076;2023-08-06T08:50:06;0.20;;;0.20;;
15112;SDS011;7657;50.140;7.076;2023-08-06T08:52:35;1.33;;;0.47;;
15112;SDS011;7657;50.140;7.076;2023-08-06T08:55:04;0.10;;;0.10;;
15112;SDS011;7657;50.140;7.076;2023-08-06T08:57:32;1.25;;;0.32;;
15112;SDS011;7657;50.140;7.076;2023-08-06T08:59:59;0.65;;;0.25;;
15112;SDS011;7657;50.140;7.076;2023-08-06T09:02:28;0.20;;;0.20;;
15112;SDS011;7657;50.140;7.076;2023-08-06T09:04:58;0.10;;;0.10;;
15112;SDS011;7657;50.140;7.076;2023-08-06T09:07:27;0.10;;;0.10;;
15112;SDS011;7657;50.140;7.076;2023-08-06T09:09:59;0.10;;;0.10;;
15112;SDS011;7657;50.140;7.076;2023-08-06T09:12:30;0.25;;;0.10;;
15112;SDS011;7657;50.140;7.076;2023-08-06T09:14:56;0.10;;;0.10;;
15112;SDS011;7657;50.140;7.076;2023-08-06T09:17:23;0.10;;;0.10;;
15112;SDS011;7657;50.140;7.076;2023-08-06T09:19:50;0.10;;;0.10;;
15112;SDS011;7657;50.140;7.076;2023-08-06T09:22:19;0.10;;;0.10;;
15112;SDS011;7657;50.140;7.076;2023-08-06T09:24:46;0.32;;;0.10;;
15112;SDS011;7657;50.140;7.076;2023-08-06T09:27:13;0.17;;;0.17;;
15112;SDS011;7657;50.140;7.076;2023-08-06T09:29:41;1.70;;;0.30;;
15112;SDS011;7657;50.140;7.076;2023-08-06T09:32:09;0.10;;;0.10;;
15112;SDS011;7657;50.140;7.076;2023-08-06T09:34:38;0.35;;;0.10;;
15112;SDS011;7657;50.140;7.076;2023-08-06T09:37:05;0.20;;;0.20;;
15112;SDS011;7657;50.140;7.076;2023-08-06T09:39:35;0.20;;;0.20;;
15112;SDS011;7657;50.140;7.076;2023-08-06T09:42:04;0.20;;;0.20;;
15112;SDS011;7657;50.140;7.076;2023-08-06T09:44:31;0.30;;;0.20;;
15112;SDS011;7657;50.140;7.076;2023-08-06T09:47:00;0.13;;;0.13;;
15112;SDS011;7657;50.140;7.076;2023-08-06T09:49:28;0.10;;;0.10;;
15112;SDS011;7657;50.140;7.076;2023-08-06T09:52:06;0.60;;;0.60;;
15112;SDS011;7657;50.140;7.076;2023-08-06T09:54:38;0.10;;;0.10;;
15112;SDS011;7657;50.140;7.076;2023-08-06T09:57:05;0.22;;;0.22;;
15112;SDS011;7657;50.140;7.076;2023-08-06T09:59:33;0.25;;;0.20;;
15112;SDS011;7657;50.140;7.076;2023-08-06T10:02:01;0.30;;;0.30;;
15112;SDS011;7657;50.140;7.076;2023-08-06T10:04:34;0.40;;;0.40;;
15112;SDS011;7657;50.140;7.076;2023-08-06T10:07:01;0.40;;;0.40;;
15112;SDS011;7657;50.140;7.076;2023-08-06T10:09:28;0.30;;;0.30;;
15112;SDS011;7657;50.140;7.076;2023-08-06T10:11:56;0.40;;;0.40;;
15112;SDS011;7657;50.140;7.076;2023-08-06T10:14:24;0.80;;;0.60;;
15112;SDS011;7657;50.140;7.076;2023-08-06T10:16:54;0.50;;;0.40;;
15112;SDS011;7657;50.140;7.076;2023-08-06T10:19:23;0.47;;;0.40;;
15112;SDS011;7657;50.140;7.076;2023-08-06T10:24:47;0.70;;;0.65;;
15112;SDS011;7657;50.140;7.076;2023-08-06T10:27:23;0.85;;;0.80;;
15112;SDS011;7657;50.140;7.076;2023-08-06T10:29:54;1.40;;;0.80;;
15112;SDS011;7657;50.140;7.076;2023-08-06T10:32:21;0.80;;;0.80;;
15112;SDS011;7657;50.140;7.076;2023-08-06T10:35:09;1.05;;;0.70;;
15112;SDS011;7657;50.140;7.076;2023-08-06T10:37:57;1.10;;;1.00;;
15112;SDS011;7657;50.140;7.076;2023-08-06T10:40:25;0.65;;;0.65;;
15112;SDS011;7657;50.140;7.076;2023-08-06T10:42:53;0.60;;;0.60;;
15112;SDS011;7657;50.140;7.076;2023-08-06T10:45:20;1.63;;;0.47;;
15112;SDS011;7657;50.140;7.076;2023-08-06T10:47:49;0.70;;;0.70;;
15112;SDS011;7657;50.140;7.076;2023-08-06T10:50:16;1.33;;;0.90;;
15112;SDS011;7657;50.140;7.076;2023-08-06T10:52:43;1.00;;;1.00;;
15112;SDS011;7657;50.140;7.076;2023-08-06T10:55:11;1.50;;;0.77;;
15112;SDS011;7657;50.140;7.076;2023-08-06T10:57:39;2.30;;;0.70;;
15112;SDS011;7657;50.140;7.076;2023-08-06T11:00:08;1.00;;;0.90;;
15112;SDS011;7657;50.140;7.076;2023-08-06T11:02:38;1.27;;;0.93;;
15112;SDS011;7657;50.140;7.076;2023-08-06T11:05:06;1.08;;;0.73;;
15112;SDS011;7657;50.140;7.076;2023-08-06T11:07:33;1.20;;;0.70;;
15112;SDS011;7657;50.140;7.076;2023-08-06T11:10:01;0.80;;;0.60;;
15112;SDS011;7657;50.140;7.076;2023-08-06T11:12:29;2.00;;;0.77;;
15112;SDS011;7657;50.140;7.076;2023-08-06T11:14:56;1.73;;;0.68;;
15112;SDS011;7657;50.140;7.076;2023-08-06T11:17:24;1.08;;;0.50;;
15112;SDS011;7657;50.140;7.076;2023-08-06T11:19:53;0.85;;;0.75;;
15112;SDS011;7657;50.140;7.076;2023-08-06T11:22:20;0.95;;;0.85;;
15112;SDS011;7657;50.140;7.076;2023-08-06T11:24:47;2.45;;;1.00;;
15112;SDS011;7657;50.140;7.076;2023-08-06T11:27:14;1.95;;;0.93;;
15112;SDS011;7657;50.140;7.076;2023-08-06T11:29:42;1.58;;;0.80;;
15112;SDS011;7657;50.140;7.076;2023-08-06T11:32:10;1.75;;;0.90;;
15112;SDS011;7657;50.140;7.076;2023-08-06T11:34:39;2.15;;;0.85;;
15112;SDS011;7657;50.140;7.076;2023-08-06T11:37:06;1.55;;;0.80;;
15112;SDS011;7657;50.140;7.076;2023-08-06T11:39:35;1.38;;;0.98;;
15112;SDS011;7657;50.140;7.076;2023-08-06T11:42:03;3.00;;;0.70;;
15112;SDS011;7657;50.140;7.076;2023-08-06T11:44:30;0.85;;;0.70;;
15112;SDS011;7657;50.140;7.076;2023-08-06T11:46:58;1.52;;;0.82;;
15112;SDS011;7657;50.140;7.076;2023-08-06T11:49:40;3.90;;;1.02;;
15112;SDS011;7657;50.140;7.076;2023-08-06T11:52:11;1.52;;;1.10;;
15112;SDS011;7657;50.140;7.076;2023-08-06T11:54:40;1.63;;;1.00;;
15112;SDS011;7657;50.140;7.076;2023-08-06T11:57:07;3.20;;;0.88;;
15112;SDS011;7657;50.140;7.076;2023-08-06T11:59:33;4.15;;;1.00;;
15112;SDS011;7657;50.140;7.076;2023-08-06T12:02:01;2.53;;;0.90;;
15112;SDS011;7657;50.140;7.076;2023-08-06T12:04:30;2.20;;;0.95;;
15112;SDS011;7657;50.140;7.076;2023-08-06T12:07:05;1.52;;;1.02;;
15112;SDS011;7657;50.140;7.076;2023-08-06T12:09:33;1.17;;;0.80;;
15112;SDS011;7657;50.140;7.076;2023-08-06T12:12:01;1.85;;;0.70;;
15112;SDS011;7657;50.140;7.076;2023-08-06T12:14:29;1.38;;;0.75;;
15112;SDS011;7657;50.140;7.076;2023-08-06T12:16:56;0.98;;;0.50;;
15112;SDS011;7657;50.140;7.076;2023-08-06T12:19:23;1.08;;;0.82;;
15112;SDS011;7657;50.140;7.076;2023-08-06T12:21:51;0.68;;;0.68;;
15112;SDS011;7657;50.140;7.076;2023-08-06T12:24:19;1.50;;;0.90;;
15112;SDS011;7657;50.140;7.076;2023-08-06T12:26:46;1.00;;;0.70;;
15112;SDS011;7657;50.140;7.076;2023-08-06T12:29:13;0.70;;;0.65;;
15112;SDS011;7657;50.140;7.076;2023-08-06T12:31:40;1.65;;;0.57;;
15112;SDS011;7657;50.140;7.076;2023-08-06T12:34:07;1.35;;;0.80;;
15112;SDS011;7657;50.140;7.076;2023-08-06T12:36:33;1.05;;;0.60;;
15112;SDS011;7657;50.140;7.076;2023-08-06T12:39:00;1.25;;;0.70;;
15112;SDS011;7657;50.140;7.076;2023-08-06T12:41:28;1.40;;;0.90;;
15112;SDS011;7657;50.140;7.076;2023-08-06T12:43:55;1.13;;;1.02;;
15112;SDS011;7657;50.140;7.076;2023-08-06T12:46:22;1.05;;;0.40;;
15112;SDS011;7657;50.140;7.076;2023-08-06T12:48:49;1.58;;;0.50;;
15112;SDS011;7657;50.140;7.076;2023-08-06T12:51:16;0.63;;;0.63;;
15112;SDS011;7657;50.140;7.076;2023-08-06T12:53:43;1.65;;;0.60;;
15112;SDS011;7657;50.140;7.076;2023-08-06T12:56:10;0.93;;;0.50;;
15112;SDS011;7657;50.140;7.076;2023-08-06T12:58:38;1.38;;;0.50;;
15112;SDS011;7657;50.140;7.076;2023-08-06T13:01:06;0.95;;;0.40;;
15112;SDS011;7657;50.140;7.076;2023-08-06T13:03:33;1.85;;;0.47;;
15112;SDS011;7657;50.140;7.076;2023-08-06T13:06:00;0.90;;;0.45;;
15112;SDS011;7657;50.140;7.076;2023-08-06T13:08:27;1.40;;;0.52;;
15112;SDS011;7657;50.140;7.076;2023-08-06T13:10:54;2.08;;;0.65;;
15112;SDS011;7657;50.140;7.076;2023-08-06T13:13:21;0.80;;;0.22;;
15112;SDS011;7657;50.140;7.076;2023-08-06T13:15:49;0.63;;;0.40;;
15112;SDS011;7657;50.140;7.076;2023-08-06T13:18:16;0.32;;;0.22;;
15112;SDS011;7657;50.140;7.076;2023-08-06T13:20:43;0.30;;;0.30;;
15112;SDS011;7657;50.140;7.076;2023-08-06T13:23:12;0.93;;;0.30;;
15112;SDS011;7657;50.140;7.076;2023-08-06T13:25:40;0.28;;;0.28;;
15112;SDS011;7657;50.140;7.076;2023-08-06T13:28:07;1.45;;;0.20;;
15112;SDS011;7657;50.140;7.076;2023-08-06T13:30:34;0.20;;;0.20;;
15112;SDS011;7657;50.140;7.076;2023-08-06T13:33:08;0.63;;;0.10;;
15112;SDS011;7657;50.140;7.076;2023-08-06T13:35:35;0.52;;;0.30;;
15112;SDS011;7657;50.140;7.076;2023-08-06T13:38:02;0.10;;;0.10;;
15112;SDS011;7657;50.140;7.076;2023-08-06T13:40:29;0.45;;;0.20;;
15112;SDS011;7657;50.140;7.076;2023-08-06T13:42:56;1.20;;;0.20;;
15112;SDS011;7657;50.140;7.076;2023-08-06T13:45:23;1.77;;;0.22;;
15112;SDS011;7657;50.140;7.076;2023-08-06T13:47:50;0.65;;;0.20;;
15112;SDS011;7657;50.140;7.076;2023-08-06T13:50:18;0.98;;;0.63;;
15112;SDS011;7657;50.140;7.076;2023-08-06T13:52:47;0.35;;;0.22;;
15112;SDS011;7657;50.140;7.076;2023-08-06T13:55:14;1.35;;;0.25;;
15112;SDS011;7657;50.140;7.076;2023-08-06T13:57:41;0.20;;;0.20;;
15112;SDS011;7657;50.140;7.076;2023-08-06T14:00:08;0.10;;;0.10;;
15112;SDS011;7657;50.140;7.076;2023-08-06T14:02:36;0.20;;;0.20;;
15112;SDS011;7657;50.140;7.076;2023-08-06T14:05:03;0.10;;;0.10;;
15112;SDS011;7657;50.140;7.076;2023-08-06T14:07:32;0.47;;;0.30;;
15112;SDS011;7657;50.140;7.076;2023-08-06T14:09:58;0.95;;;0.43;;
15112;SDS011;7657;50.140;7.076;2023-08-06T14:12:25;0.55;;;0.20;;
15112;SDS011;7657;50.140;7.076;2023-08-06T14:14:52;0.20;;;0.20;;
15112;SDS011;7657;50.140;7.076;2023-08-06T14:17:19;0.63;;;0.10;;
15112;SDS011;7657;50.140;7.076;2023-08-06T14:19:46;0.30;;;0.30;;
15112;SDS011;7657;50.140;7.076;2023-08-06T14:22:13;0.90;;;0.30;;
15112;SDS011;7657;50.140;7.076;2023-08-06T14:24:41;0.55;;;0.20;;
15112;SDS011;7657;50.140;7.076;2023-08-06T14:27:08;0.45;;;0.43;;
15112;SDS011;7657;50.140;7.076;2023-08-06T14:29:35;0.15;;;0.15;;
15112;SDS011;7657;50.140;7.076;2023-08-06T14:32:02;1.52;;;0.30;;
15112;SDS011;7657;50.140;7.076;2023-08-06T14:34:29;0.70;;;0.20;;
15112;SDS011;7657;50.140;7.076;2023-08-06T14:36:56;0.30;;;0.30;;
15112;SDS011;7657;50.140;7.076;2023-08-06T14:39:24;0.73;;;0.20;;
15112;SDS011;7657;50.140;7.076;2023-08-06T14:41:52;0.80;;;0.30;;
15112;SDS011;7657;50.140;7.076;2023-08-06T14:44:19;0.43;;;0.40;;
15112;SDS011;7657;50.140;7.076;2023-08-06T14:46:46;0.20;;;0.20;;
15112;SDS011;7657;50.140;7.076;2023-08-06T14:49:13;0.68;;;0.30;;
15112;SDS011;7657;50.140;7.076;2023-08-06T14:51:40;0.30;;;0.28;;
15112;SDS011;7657;50.140;7.076;2023-08-06T14:54:06;0.30;;;0.28;;
15112;SDS011;7657;50.140;7.076;2023-08-06T14:56:33;0.20;;;0.20;;
15112;SDS011;7657;50.140;7.076;2023-08-06T14:59:01;0.57;;;0.32;;
15112;SDS011;7657;50.140;7.076;2023-08-06T15:01:28;0.47;;;0.30;;
15112;SDS011;7657;50.140;7.076;2023-08-06T15:03:55;0.35;;;0.20;;
15112;SDS011;7657;50.140;7.076;2023-08-06T15:06:22;2.70;;;0.40;;